createdAt,value
2022-09-11T00:01:35.233Z,1.50
2022-09-11T00:04:03.843Z,1.35
2022-09-11T00:06:31.218Z,1.65
2022-09-11T00:09:01.806Z,2.25
2022-09-11T00:11:33.044Z,1.80
2022-09-11T00:14:01.123Z,1.83
2022-09-11T00:16:29.559Z,1.58
2022-09-11T00:19:03.952Z,1.60
2022-09-11T00:21:31.335Z,1.98
2022-09-11T00:23:59.020Z,1.58
2022-09-11T00:26:26.378Z,1.80
2022-09-11T00:28:55.210Z,1.60
2022-09-11T00:31:25.883Z,1.40
2022-09-11T00:33:53.989Z,1.60
2022-09-11T00:36:24.406Z,1.27
2022-09-11T00:38:52.330Z,1.65
2022-09-11T00:41:36.293Z,1.20
2022-09-11T00:44:16.877Z,1.27
2022-09-11T00:47:00.239Z,1.50
2022-09-11T00:49:40.768Z,1.38
2022-09-11T00:52:23.013Z,1.30
2022-09-11T00:54:57.362Z,1.30
2022-09-11T00:57:28.768Z,1.35
2022-09-11T00:59:59.499Z,1.40
2022-09-11T01:02:30.031Z,1.70
2022-09-11T01:04:58.337Z,1.33
2022-09-11T01:07:26.835Z,1.50
2022-09-11T01:09:55.876Z,1.98
2022-09-11T01:12:36.595Z,1.73
2022-09-11T01:15:08.818Z,1.70
2022-09-11T01:17:58.118Z,1.52
2022-09-11T01:20:35.547Z,1.45
2022-09-11T01:23:32.127Z,1.73
2022-09-11T01:26:24.669Z,1.42
2022-09-11T01:29:06.429Z,2.00
2022-09-11T01:34:25.975Z,2.00
2022-09-11T01:37:08.396Z,2.10
2022-09-11T01:39:44.996Z,2.05
2022-09-11T01:42:17.782Z,1.90
2022-09-11T01:44:52.800Z,2.75
2022-09-11T01:47:21.138Z,2.47
2022-09-11T01:50:05.272Z,2.80
2022-09-11T01:52:41.951Z,3.33
2022-09-11T01:55:17.517Z,3.45
2022-09-11T01:58:07.134Z,3.50
2022-09-11T02:00:39.472Z,3.72
2022-09-11T02:03:14.297Z,3.83
2022-09-11T02:05:51.625Z,3.80
2022-09-11T02:08:44.159Z,4.68
2022-09-11T02:11:14.303Z,4.28
2022-09-11T02:14:06.400Z,4.47
2022-09-11T02:16:51.631Z,4.10
2022-09-11T02:19:25.974Z,3.20
2022-09-11T02:21:53.492Z,2.72
2022-09-11T02:24:22.837Z,2.67
2022-09-11T02:27:00.684Z,2.50
2022-09-11T02:29:31.321Z,2.10
2022-09-11T02:32:00.873Z,2.15
2022-09-11T02:34:32.687Z,2.10
2022-09-11T02:37:18.963Z,2.05
2022-09-11T02:40:19.484Z,1.70
2022-09-11T02:43:19.384Z,1.60
2022-09-11T02:46:16.530Z,1.80
2022-09-11T02:48:53.777Z,1.70
2022-09-11T02:51:46.785Z,1.60
2022-09-11T02:54:40.858Z,2.08
2022-09-11T02:57:25.159Z,1.60
2022-09-11T03:00:06.499Z,1.73
2022-09-11T03:02:37.528Z,1.63
2022-09-11T03:05:06.349Z,1.70
2022-09-11T03:07:34.114Z,1.60
2022-09-11T03:10:01.782Z,1.27
2022-09-11T03:12:30.702Z,1.55
2022-09-11T03:14:57.960Z,1.70
2022-09-11T03:17:25.533Z,1.85
2022-09-11T03:19:53.055Z,2.00
2022-09-11T03:22:20.232Z,1.95
2022-09-11T03:24:48.257Z,1.80
2022-09-11T03:27:16.009Z,1.88
2022-09-11T03:29:44.906Z,1.92
2022-09-11T03:32:12.365Z,1.63
2022-09-11T03:34:39.746Z,1.80
2022-09-11T03:37:08.336Z,1.88
2022-09-11T03:39:35.927Z,1.75
2022-09-11T03:42:03.525Z,1.90
2022-09-11T03:44:30.695Z,1.73
2022-09-11T03:46:57.980Z,1.77
2022-09-11T03:49:25.716Z,1.95
2022-09-11T03:51:52.873Z,1.90
2022-09-11T03:54:21.017Z,1.70
2022-09-11T03:56:49.109Z,1.80
2022-09-11T03:59:16.494Z,2.03
2022-09-11T04:01:45.165Z,2.50
2022-09-11T04:04:16.115Z,2.33
2022-09-11T04:06:44.399Z,2.50
2022-09-11T04:09:12.051Z,2.00
2022-09-11T04:11:40.220Z,2.60
2022-09-11T04:14:14.613Z,2.45
2022-09-11T04:16:43.316Z,2.53
2022-09-11T04:19:13.311Z,2.45
2022-09-11T04:21:42.653Z,2.28
2022-09-11T04:24:10.441Z,2.38
2022-09-11T04:26:37.842Z,2.50
2022-09-11T04:29:22.576Z,2.13
2022-09-11T04:31:51.310Z,2.72
2022-09-11T04:34:19.052Z,2.03
2022-09-11T04:36:46.492Z,4.07
2022-09-11T04:39:20.106Z,32.42
2022-09-11T04:41:49.200Z,9.68
2022-09-11T04:44:17.032Z,3.80
2022-09-11T04:46:45.314Z,4.43
2022-09-11T04:49:13.076Z,6.57
2022-09-11T04:51:41.157Z,3.08
2022-09-11T04:54:16.588Z,2.55
2022-09-11T04:56:44.168Z,2.40
2022-09-11T04:59:15.955Z,1.98
2022-09-11T05:01:48.842Z,6.57
2022-09-11T05:04:25.796Z,2.88
2022-09-11T05:06:54.942Z,2.30
2022-09-11T05:09:22.202Z,2.33
2022-09-11T05:11:50.436Z,2.47
2022-09-11T05:14:18.537Z,2.22
2022-09-11T05:16:48.576Z,2.00
2022-09-11T05:19:19.144Z,2.20
2022-09-11T05:21:48.153Z,2.42
2022-09-11T05:24:15.393Z,2.63
2022-09-11T05:26:43.218Z,2.83
2022-09-11T05:29:14.897Z,2.55
2022-09-11T05:32:03.573Z,2.20
2022-09-11T05:34:30.845Z,2.28
2022-09-11T05:36:59.207Z,2.42
2022-09-11T05:39:29.982Z,2.17
2022-09-11T05:41:58.551Z,2.08
2022-09-11T05:44:31.063Z,2.30
2022-09-11T05:46:58.893Z,2.08
2022-09-11T05:49:26.953Z,2.33
2022-09-11T05:51:54.322Z,1.98
2022-09-11T05:54:21.636Z,2.40
2022-09-11T05:56:49.065Z,2.47
2022-09-11T05:59:23.486Z,2.50
2022-09-11T06:01:51.637Z,2.70
2022-09-11T06:04:29.023Z,2.33
2022-09-11T06:06:58.730Z,2.60
2022-09-11T06:09:27.288Z,2.53
2022-09-11T06:11:55.144Z,2.70
2022-09-11T06:14:22.330Z,2.80
2022-09-11T06:16:51.489Z,2.60
2022-09-11T06:19:19.780Z,2.13
2022-09-11T06:21:47.157Z,2.90
2022-09-11T06:24:23.566Z,3.00
2022-09-11T06:26:51.361Z,3.03
2022-09-11T06:29:19.488Z,2.58
2022-09-11T06:31:51.454Z,3.17
2022-09-11T06:34:22.421Z,3.30
2022-09-11T06:36:52.317Z,3.33
2022-09-11T06:39:23.068Z,3.00
2022-09-11T06:41:53.902Z,2.70
2022-09-11T06:44:27.551Z,2.90
2022-09-11T06:46:57.619Z,3.33
2022-09-11T06:49:25.802Z,2.85
2022-09-11T06:52:11.597Z,2.50
2022-09-11T06:54:41.612Z,3.13
2022-09-11T06:57:14.195Z,2.78
2022-09-11T06:59:43.140Z,2.80
2022-09-11T07:02:12.705Z,3.00
2022-09-11T07:04:40.153Z,3.00
2022-09-11T07:07:07.915Z,2.80
2022-09-11T07:09:37.593Z,2.72
2022-09-11T07:12:05.391Z,2.53
2022-09-11T07:14:33.006Z,2.70
2022-09-11T07:17:10.530Z,2.90
2022-09-11T07:19:39.134Z,2.70
2022-09-11T07:22:06.512Z,2.80
2022-09-11T07:24:35.362Z,3.53
2022-09-11T07:27:02.710Z,3.05
2022-09-11T07:32:02.321Z,2.65
2022-09-11T07:34:29.762Z,3.22
2022-09-11T07:37:00.293Z,2.00
2022-09-11T07:39:28.027Z,2.90
2022-09-11T07:42:07.377Z,2.45
2022-09-11T07:44:35.876Z,2.50
2022-09-11T07:47:04.174Z,2.58
2022-09-11T07:49:36.772Z,2.78
2022-09-11T07:52:05.256Z,2.55
2022-09-11T07:54:44.952Z,2.85
2022-09-11T07:57:14.840Z,2.60
2022-09-11T07:59:42.834Z,2.67
2022-09-11T08:02:11.733Z,2.65
2022-09-11T08:04:39.606Z,2.17
2022-09-11T08:07:06.807Z,2.90
2022-09-11T08:09:36.398Z,2.90
2022-09-11T08:12:06.387Z,2.65
2022-09-11T08:14:37.001Z,2.88
2022-09-11T08:17:13.721Z,2.90
2022-09-11T08:19:41.971Z,3.17
2022-09-11T08:22:09.103Z,2.97
2022-09-11T08:24:42.870Z,2.90
2022-09-11T08:27:12.737Z,2.63
2022-09-11T08:29:42.290Z,3.30
2022-09-11T08:32:10.527Z,3.00
2022-09-11T08:34:39.460Z,3.40
2022-09-11T08:37:06.855Z,3.10
2022-09-11T08:39:35.883Z,2.92
2022-09-11T08:42:15.096Z,3.20
2022-09-11T08:44:54.105Z,3.45
2022-09-11T08:47:46.595Z,3.17
2022-09-11T08:50:36.087Z,3.13
2022-09-11T08:53:04.198Z,2.75
2022-09-11T08:55:43.885Z,3.10
2022-09-11T08:58:33.607Z,2.53
2022-09-11T09:01:26.173Z,2.90
2022-09-11T09:04:19.055Z,2.55
2022-09-11T09:07:01.660Z,2.00
2022-09-11T09:09:43.041Z,1.80
2022-09-11T09:12:35.464Z,2.22
2022-09-11T09:15:11.467Z,2.75
2022-09-11T09:17:41.486Z,3.58
2022-09-11T09:20:16.491Z,2.42
2022-09-11T09:22:47.357Z,2.08
2022-09-11T09:25:19.960Z,2.20
2022-09-11T09:27:50.964Z,1.80
2022-09-11T09:30:24.728Z,1.65
2022-09-11T09:33:11.403Z,1.60
2022-09-11T09:35:43.202Z,1.50
2022-09-11T09:38:21.801Z,1.70
2022-09-11T09:41:00.164Z,1.60
2022-09-11T09:43:48.701Z,1.80
2022-09-11T09:46:42.254Z,1.60
2022-09-11T09:49:19.185Z,1.30
2022-09-11T09:51:46.306Z,1.60
2022-09-11T09:54:20.811Z,1.75
2022-09-11T09:57:00.304Z,1.65
2022-09-11T09:59:53.316Z,1.45
2022-09-11T10:02:55.152Z,1.40
2022-09-11T10:05:30.613Z,1.55
2022-09-11T10:08:03.809Z,1.20
2022-09-11T10:10:36.450Z,1.25
2022-09-11T10:13:25.073Z,1.33
2022-09-11T10:15:55.906Z,1.55
2022-09-11T10:18:45.219Z,1.10
2022-09-11T10:21:12.713Z,1.38
2022-09-11T10:23:58.011Z,1.02
2022-09-11T10:26:49.794Z,1.13
2022-09-11T10:29:25.744Z,1.10
2022-09-11T10:31:57.754Z,1.13
2022-09-11T10:34:28.088Z,1.00
2022-09-11T10:37:07.620Z,1.13
2022-09-11T10:39:36.912Z,1.15
2022-09-11T10:42:25.909Z,1.20
2022-09-11T10:44:57.405Z,1.13
2022-09-11T10:47:27.649Z,1.08
2022-09-11T10:50:31.009Z,1.20
2022-09-11T10:52:58.419Z,1.30
2022-09-11T10:55:30.594Z,1.10
2022-09-11T10:58:09.040Z,1.05
2022-09-11T11:00:38.681Z,1.10
2022-09-11T11:03:17.656Z,1.30
2022-09-11T11:05:50.560Z,1.15
2022-09-11T11:08:39.476Z,1.63
2022-09-11T11:11:42.593Z,1.10
2022-09-11T11:14:15.602Z,1.00
2022-09-11T11:17:15.769Z,1.20
2022-09-11T11:20:07.550Z,1.23
2022-09-11T11:22:49.829Z,1.25
2022-09-11T11:25:22.911Z,1.20
2022-09-11T11:27:56.013Z,1.10
2022-09-11T11:30:36.635Z,1.45
2022-09-11T11:33:09.731Z,1.30
2022-09-11T11:35:48.928Z,1.27
2022-09-11T11:38:29.073Z,1.20
2022-09-11T11:41:25.426Z,1.25
2022-09-11T11:44:16.414Z,1.45
2022-09-11T11:46:48.834Z,1.30
2022-09-11T11:49:20.936Z,1.80
2022-09-11T11:51:57.201Z,1.75
2022-09-11T11:54:37.184Z,1.40
2022-09-11T11:57:12.915Z,1.70
2022-09-11T12:00:01.489Z,1.73
2022-09-11T12:02:49.571Z,1.83
2022-09-11T12:05:24.202Z,1.90
2022-09-11T12:07:52.083Z,2.17
2022-09-11T12:10:24.859Z,2.17
2022-09-11T12:12:56.467Z,2.60
2022-09-11T12:15:33.693Z,2.40
2022-09-11T12:18:11.628Z,2.55
2022-09-11T12:20:41.315Z,2.60
2022-09-11T12:23:32.539Z,2.63
2022-09-11T12:26:08.894Z,2.70
2022-09-11T12:28:37.904Z,3.70
2022-09-11T12:31:11.693Z,2.33
2022-09-11T12:33:43.042Z,3.05
2022-09-11T12:36:24.615Z,2.63
2022-09-11T12:38:57.722Z,2.40
2022-09-11T12:41:28.412Z,2.60
2022-09-11T12:43:56.921Z,2.70
2022-09-11T12:46:24.476Z,2.47
2022-09-11T12:49:20.981Z,2.90
2022-09-11T12:52:00.145Z,3.38
2022-09-11T12:54:42.376Z,3.17
2022-09-11T12:57:19.273Z,2.50
2022-09-11T12:59:53.425Z,2.53
2022-09-11T13:02:23.486Z,2.67
2022-09-11T13:04:52.223Z,2.42
2022-09-11T13:07:45.356Z,2.45
2022-09-11T13:10:46.772Z,2.60
2022-09-11T13:13:35.031Z,2.33
2022-09-11T13:16:21.953Z,2.30
2022-09-11T13:18:49.284Z,2.33
2022-09-11T13:21:22.001Z,1.90
2022-09-11T13:23:52.307Z,1.90
2022-09-11T13:26:31.540Z,1.90
2022-09-11T13:29:01.480Z,1.70
2022-09-11T13:31:49.798Z,2.03
2022-09-11T13:34:20.164Z,1.75
2022-09-11T13:36:52.304Z,2.05
2022-09-11T13:39:22.242Z,1.50
2022-09-11T13:41:53.314Z,1.60
2022-09-11T13:44:52.169Z,1.77
2022-09-11T13:47:24.899Z,1.80
2022-09-11T13:49:55.679Z,1.42
2022-09-11T13:52:26.727Z,1.50
2022-09-11T13:54:57.532Z,1.58
2022-09-11T13:57:28.252Z,1.70
2022-09-11T13:59:57.194Z,1.97
2022-09-11T14:02:28.815Z,2.92
2022-09-11T14:05:09.179Z,3.33
2022-09-11T14:07:47.359Z,2.42
2022-09-11T14:10:25.404Z,2.90
2022-09-11T14:13:04.356Z,2.40
2022-09-11T14:15:52.201Z,2.40
2022-09-11T14:18:22.563Z,2.50
2022-09-11T14:20:50.249Z,2.45
2022-09-11T14:23:24.059Z,3.53
2022-09-11T14:26:17.149Z,3.30
2022-09-11T14:28:55.654Z,3.53
2022-09-11T14:31:37.640Z,4.45
2022-09-11T14:34:11.130Z,3.55
2022-09-11T14:37:07.882Z,2.30
2022-09-11T14:39:39.605Z,2.47
2022-09-11T14:42:18.158Z,2.80
2022-09-11T14:44:48.383Z,2.33
2022-09-11T14:47:22.012Z,2.15
2022-09-11T14:49:51.738Z,2.65
2022-09-11T14:52:22.921Z,2.20
2022-09-11T14:54:50.501Z,2.33
2022-09-11T14:57:26.413Z,2.40
2022-09-11T14:59:54.098Z,2.92
2022-09-11T15:02:23.779Z,4.03
2022-09-11T15:04:54.483Z,4.10
2022-09-11T15:07:23.452Z,4.13
2022-09-11T15:09:52.688Z,3.92
2022-09-11T15:12:21.774Z,3.88
2022-09-11T15:14:57.233Z,3.70
2022-09-11T15:17:31.624Z,3.70
2022-09-11T15:20:00.699Z,4.03
2022-09-11T15:22:28.769Z,3.17
2022-09-11T15:25:00.430Z,3.05
2022-09-11T15:27:28.337Z,3.00
2022-09-11T15:29:55.815Z,3.60
2022-09-11T15:32:23.244Z,5.45
2022-09-11T15:34:51.782Z,11.65
2022-09-11T15:37:19.274Z,4.75
2022-09-11T15:39:46.654Z,4.55
2022-09-11T15:42:14.471Z,3.10
2022-09-11T15:44:41.682Z,5.05
2022-09-11T15:47:09.402Z,4.47
2022-09-11T15:49:47.640Z,3.03
2022-09-11T15:52:15.260Z,34.33
2022-09-11T15:54:45.507Z,79.97
2022-09-11T15:57:13.133Z,26.85
2022-09-11T15:59:41.002Z,19.75
2022-09-11T16:02:10.700Z,5.35
2022-09-11T16:04:38.043Z,5.53
2022-09-11T16:07:05.304Z,17.42
2022-09-11T16:09:33.452Z,11.50
2022-09-11T16:12:02.012Z,6.70
2022-09-11T16:14:33.141Z,4.50
2022-09-11T16:17:02.426Z,3.85
2022-09-11T16:19:30.931Z,4.72
2022-09-11T16:22:01.423Z,3.50
2022-09-11T16:24:31.575Z,4.43
2022-09-11T16:27:00.895Z,3.70
2022-09-11T16:29:58.914Z,3.35
2022-09-11T16:32:28.629Z,3.85
2022-09-11T16:34:57.907Z,4.55
2022-09-11T16:37:26.187Z,3.70
2022-09-11T16:39:53.794Z,3.72
2022-09-11T16:42:21.811Z,4.30
2022-09-11T16:44:50.238Z,4.40
2022-09-11T16:47:18.303Z,4.95
2022-09-11T16:52:34.800Z,4.05
2022-09-11T16:55:04.001Z,4.35
2022-09-11T16:57:32.349Z,4.32
2022-09-11T17:00:00.102Z,4.60
2022-09-11T17:02:30.134Z,5.00
2022-09-11T17:04:57.528Z,4.82
2022-09-11T17:07:25.186Z,7.40
2022-09-11T17:09:53.208Z,6.10
2022-09-11T17:12:22.299Z,5.65
2022-09-11T17:14:50.285Z,5.60
2022-09-11T17:17:17.827Z,5.40
2022-09-11T17:19:45.116Z,4.90
2022-09-11T17:22:12.545Z,4.82
2022-09-11T17:24:44.205Z,5.05
2022-09-11T17:27:11.643Z,5.43
2022-09-11T17:29:43.810Z,5.38
2022-09-11T17:32:31.174Z,5.38
2022-09-11T17:34:58.891Z,5.70
2022-09-11T17:37:27.067Z,7.47
2022-09-11T17:39:54.514Z,6.10
2022-09-11T17:42:22.742Z,7.75
2022-09-11T17:44:50.332Z,7.15
2022-09-11T17:47:17.649Z,6.97
2022-09-11T17:49:45.562Z,7.00
2022-09-11T17:52:13.987Z,7.40
2022-09-11T17:54:42.301Z,6.63
2022-09-11T17:57:09.469Z,7.95
2022-09-11T17:59:37.023Z,7.70
2022-09-11T18:02:04.565Z,6.18
2022-09-11T18:04:32.021Z,7.30
2022-09-11T18:06:59.643Z,7.88
2022-09-11T18:09:27.185Z,8.32
2022-09-11T18:11:54.902Z,8.57
2022-09-11T18:14:23.039Z,8.52
2022-09-11T18:16:50.805Z,8.63
2022-09-11T18:19:21.926Z,8.40
2022-09-11T18:21:50.924Z,8.00
2022-09-11T18:27:07.077Z,8.57
2022-09-11T18:29:35.354Z,7.93
2022-09-11T18:32:03.520Z,10.07
2022-09-11T18:34:31.273Z,8.77
2022-09-11T18:37:00.015Z,9.45
2022-09-11T18:39:27.491Z,8.50
2022-09-11T18:41:55.465Z,8.35
2022-09-11T18:44:25.361Z,8.95
2022-09-11T18:46:54.493Z,8.63
2022-09-11T18:49:42.115Z,9.32
2022-09-11T18:52:10.797Z,9.00
2022-09-11T18:54:38.726Z,11.27
2022-09-11T18:57:06.261Z,9.23
2022-09-11T18:59:33.602Z,9.70
2022-09-11T19:02:01.395Z,8.40
2022-09-11T19:04:29.022Z,9.73
2022-09-11T19:06:56.265Z,8.70
2022-09-11T19:09:46.143Z,10.30
2022-09-11T19:12:15.972Z,9.55
2022-09-11T19:14:43.516Z,8.25
2022-09-11T19:17:10.844Z,9.73
2022-09-11T19:19:38.210Z,9.35
2022-09-11T19:22:05.888Z,9.30
2022-09-11T19:24:33.692Z,9.52
2022-09-11T19:27:00.966Z,8.60
2022-09-11T19:29:28.746Z,7.60
2022-09-11T19:31:56.119Z,7.93
2022-09-11T19:37:12.925Z,7.70
2022-09-11T19:39:40.974Z,8.35
2022-09-11T19:42:09.338Z,6.68
2022-09-11T19:44:37.297Z,8.48
2022-09-11T19:47:04.684Z,7.97
2022-09-11T19:49:33.113Z,8.65
2022-09-11T19:52:01.632Z,7.80
2022-09-11T19:54:30.753Z,8.57
2022-09-11T19:56:57.997Z,7.97
2022-09-11T19:59:25.891Z,8.30
2022-09-11T20:02:12.537Z,8.75
2022-09-11T20:04:40.214Z,9.10
2022-09-11T20:07:07.344Z,8.02
2022-09-11T20:09:35.348Z,8.00
2022-09-11T20:12:03.064Z,8.52
2022-09-11T20:14:30.510Z,7.60
2022-09-11T20:16:57.657Z,8.82
2022-09-11T20:19:25.409Z,8.68
2022-09-11T20:21:54.328Z,7.32
2022-09-11T20:24:21.426Z,8.50
2022-09-11T20:26:53.409Z,7.90
2022-09-11T20:29:20.663Z,8.02
2022-09-11T20:31:51.050Z,7.13
2022-09-11T20:34:19.450Z,7.65
2022-09-11T20:36:47.605Z,7.43
2022-09-11T20:39:16.060Z,7.82
2022-09-11T20:41:44.969Z,7.05
2022-09-11T20:44:12.235Z,7.05
2022-09-11T20:46:40.775Z,7.38
2022-09-11T20:49:08.264Z,7.95
2022-09-11T20:51:35.525Z,7.28
2022-09-11T20:54:04.051Z,7.85
2022-09-11T20:56:34.605Z,7.95
2022-09-11T20:59:01.779Z,7.43
2022-09-11T21:01:32.501Z,8.43
2022-09-11T21:04:01.600Z,7.75
2022-09-11T21:06:31.804Z,8.43
2022-09-11T21:09:01.740Z,7.95
2022-09-11T21:11:30.120Z,8.07
2022-09-11T21:13:57.928Z,8.50
2022-09-11T21:16:25.279Z,8.65
2022-09-11T21:18:55.936Z,7.85
2022-09-11T21:21:25.194Z,8.35
2022-09-11T21:24:04.009Z,8.60
2022-09-11T21:26:33.489Z,8.20
2022-09-11T21:29:03.369Z,8.75
2022-09-11T21:31:30.783Z,8.63
2022-09-11T21:33:58.155Z,8.43
2022-09-11T21:36:26.122Z,8.82
2022-09-11T21:38:53.459Z,8.80
2022-09-11T21:41:20.762Z,8.43
2022-09-11T21:43:48.721Z,8.43
2022-09-11T21:46:16.240Z,9.13
2022-09-11T21:48:43.492Z,9.93
2022-09-11T21:51:14.232Z,8.77
2022-09-11T21:53:44.425Z,9.60
2022-09-11T21:56:25.024Z,9.23
2022-09-11T21:58:53.383Z,9.63
2022-09-11T22:01:22.750Z,10.45
2022-09-11T22:03:50.512Z,13.38
2022-09-11T22:06:20.327Z,14.57
2022-09-11T22:08:47.871Z,10.30
2022-09-11T22:11:16.250Z,10.45
2022-09-11T22:13:44.289Z,9.30
2022-09-11T22:16:13.979Z,9.35
2022-09-11T22:18:41.887Z,9.10
2022-09-11T22:21:10.430Z,9.23
2022-09-11T22:23:38.042Z,9.90
2022-09-11T22:26:11.420Z,10.43
2022-09-11T22:28:39.115Z,9.57
2022-09-11T22:31:12.341Z,9.95
2022-09-11T22:33:41.058Z,9.80
2022-09-11T22:36:10.853Z,9.40
2022-09-11T22:38:38.122Z,10.60
2022-09-11T22:41:05.967Z,10.60
2022-09-11T22:43:33.254Z,11.25
2022-09-11T22:46:00.560Z,11.10
2022-09-11T22:48:28.320Z,9.65
2022-09-11T22:50:57.549Z,10.27
2022-09-11T22:53:26.105Z,11.13
2022-09-11T22:55:54.063Z,10.73
2022-09-11T22:58:21.972Z,11.80
2022-09-11T23:00:50.277Z,11.13
2022-09-11T23:03:18.539Z,9.85
2022-09-11T23:06:04.540Z,10.90
2022-09-11T23:08:39.065Z,11.70
2022-09-11T23:11:07.347Z,10.93
2022-09-11T23:13:35.187Z,11.05
2022-09-11T23:16:13.361Z,10.27
2022-09-11T23:18:41.515Z,11.65
2022-09-11T23:21:09.471Z,11.05
2022-09-11T23:23:40.976Z,12.70
2022-09-11T23:28:37.844Z,11.85
2022-09-11T23:31:11.385Z,11.38
2022-09-11T23:33:38.762Z,11.57
2022-09-11T23:36:11.362Z,11.55
2022-09-11T23:38:38.924Z,12.23
2022-09-11T23:41:07.421Z,12.80
2022-09-11T23:43:34.732Z,12.23
2022-09-11T23:46:02.513Z,11.25
2022-09-11T23:48:30.130Z,11.02
2022-09-11T23:50:57.358Z,12.25
2022-09-11T23:53:24.443Z,12.40
2022-09-11T23:55:51.898Z,11.85
2022-09-11T23:58:19.063Z,11.10
